Time;durP1;ratioP1;P1;durP2;ratioP2;P2;SDS_P1;SDS_P2;PMS_P1;PMS_P2;Temp;Humidity;BMP_temperature;BMP_pressure;BME280_temperature;BME280_humidity;BME280_pressure;Samples;Min_cycle;Max_cycle;Signal;HPM_P1;HPM_P2
2022/10/11 00:02:20;;;;;;;14.60;5.83;;;10.90;1.00;;;;;;6214748;23;20436;-88
2022/10/11 00:09:03;;;;;;;19.43;6.63;;;10.90;1.00;;;;;;6167824;23;20397;-86
2022/10/11 00:18:35;;;;;;;13.00;6.90;;;10.80;1.00;;;;;;6196671;23;20704;-88
2022/10/11 00:25:22;;;;;;;;;;;;;;;;;;;;;
2022/10/11 00:28:18;;;;;;;;;;;;;;;;;;;;;
2022/10/11 00:31:34;;;;;;;18.70;8.17;;;10.60;36.20;;;;;;6215082;23;20899;-87
2022/10/11 00:37:57;;;;;;;19.67;9.00;;;10.60;97.10;;;;;;6190770;23;20389;-87
2022/10/11 00:51:27;;;;;;;14.50;7.47;;;10.40;99.90;;;;;;6122884;23;20402;-87
2022/10/11 00:55:10;;;;;;;;;;;;;;;;;;;;;
2022/10/11 00:57:52;;;;;;;17.60;7.43;;;10.30;99.90;;;;;;6176333;23;20459;-87
2022/10/11 01:04:08;;;;;;;13.07;6.87;;;10.30;99.90;;;;;;6159370;23;20429;-88
2022/10/11 01:07:33;;;;;;;;;;;;;;;;;;;;;
2022/10/11 01:13:47;;;;;;;;;;;;;;;;;;;;;
2022/10/11 01:16:48;;;;;;;9.47;5.70;;;10.20;99.90;;;;;;6182224;23;20472;-86
2022/10/11 01:23:16;;;;;;;;;;;;;;;;;;;;;
2022/10/11 01:26:49;;;;;;;13.80;6.73;;;10.20;99.90;;;;;;6186215;23;20445;-86
2022/10/11 01:30:11;;;;;;;17.07;6.33;;;10.30;99.90;;;;;;6135046;23;20386;-88
2022/10/11 01:35:52;;;;;;;13.40;6.97;;;10.30;99.90;;;;;;6166162;23;20378;-87
2022/10/11 01:38:40;;;;;;;12.70;7.07;;;10.20;99.90;;;;;;6185309;23;20364;-87
2022/10/11 01:41:11;;;;;;;14.77;5.83;;;10.20;99.90;;;;;;6185036;23;20378;-87
2022/10/11 01:43:38;;;;;;;19.67;7.03;;;10.20;99.90;;;;;;6159259;23;20740;-87
2022/10/11 01:46:15;;;;;;;9.63;6.80;;;10.20;99.90;;;;;;6158648;23;20512;-87
2022/10/11 01:48:57;;;;;;;17.93;7.03;;;10.20;99.90;;;;;;6185728;23;20369;-87
2022/10/11 01:51:36;;;;;;;13.53;6.50;;;10.20;99.90;;;;;;6158831;23;20472;-87
2022/10/11 01:54:29;;;;;;;21.03;7.50;;;10.20;99.90;;;;;;6159205;23;20412;-87
2022/10/11 01:57:13;;;;;;;14.17;6.73;;;10.20;99.90;;;;;;6209016;23;20484;-87
2022/10/11 02:00:00;;;;;;;16.97;7.10;;;10.10;99.90;;;;;;6215502;23;20399;-87
2022/10/11 02:02:47;;;;;;;18.63;7.33;;;10.10;99.90;;;;;;6215485;23;20353;-86
2022/10/11 02:05:39;;;;;;;13.70;6.87;;;10.10;99.90;;;;;;6189027;23;20495;-88
2022/10/11 02:08:25;;;;;;;13.53;7.43;;;10.10;99.90;;;;;;6216011;23;20416;-87
2022/10/11 02:11:10;;;;;;;16.08;7.50;;;10.00;99.90;;;;;;6213874;23;20353;-86
2022/10/11 02:13:44;;;;;;;14.00;7.20;;;10.00;99.90;;;;;;6187336;23;20197;-87
2022/10/11 02:16:16;;;;;;;17.00;7.13;;;10.00;99.90;;;;;;6214268;23;20387;-87
2022/10/11 02:18:46;;;;;;;13.73;6.80;;;9.90;99.90;;;;;;6187656;23;20762;-87
2022/10/11 02:21:15;;;;;;;16.83;6.50;;;9.90;99.90;;;;;;6213971;23;20377;-87
2022/10/11 02:23:56;;;;;;;;;;;;;;;;;;;;;
2022/10/11 02:26:29;;;;;;;18.57;6.90;;;9.90;99.90;;;;;;6213145;23;20946;-87
2022/10/11 02:29:55;;;;;;;14.60;7.90;;;9.80;99.90;;;;;;6213368;23;20733;-87
2022/10/11 02:35:58;;;;;;;;;;;;;;;;;;;;;
2022/10/11 02:38:39;;;;;;;14.73;8.30;;;9.70;99.90;;;;;;6214350;23;20443;-87
2022/10/11 02:41:46;;;;;;;;;;;;;;;;;;;;;
2022/10/11 02:45:08;;;;;;;;;;;;;;;;;;;;;
2022/10/11 02:48:20;;;;;;;13.10;8.40;;;9.60;99.90;;;;;;6203040;23;20539;-87
2022/10/11 02:54:06;;;;;;;15.10;8.32;;;9.50;99.90;;;;;;6192608;23;20174;-87
2022/10/11 02:56:43;;;;;;;12.90;8.35;;;9.50;99.90;;;;;;6213111;23;20239;-87
2022/10/11 02:59:36;;;;;;;12.00;7.63;;;9.50;99.90;;;;;;6186252;23;20153;-87
2022/10/11 03:02:37;;;;;;;;;;;;;;;;;;;;;
2022/10/11 03:07:50;;;;;;;13.77;8.25;;;9.40;99.90;;;;;;6192910;23;20193;-87
2022/10/11 03:10:56;;;;;;;;;;;;;;;;;;;;;
2022/10/11 03:16:55;;;;;;;;;;;;;;;;;;;;;
2022/10/11 03:25:36;;;;;;;14.30;7.55;;;9.30;99.90;;;;;;6193225;23;20519;-87
2022/10/11 03:31:57;;;;;;;;;;;;;;;;;;;;;
2022/10/11 03:34:26;;;;;;;15.55;7.25;;;9.30;99.90;;;;;;6214339;23;20249;-86
2022/10/11 03:37:04;;;;;;;;;;;;;;;;;;;;;
2022/10/11 03:40:14;;;;;;;15.43;8.20;;;9.30;99.90;;;;;;6214530;23;20226;-88
2022/10/11 03:42:47;;;;;;;21.40;8.93;;;9.30;99.90;;;;;;6187666;23;20161;-87
2022/10/11 03:46:02;;;;;;;22.55;7.65;;;9.30;99.90;;;;;;6213988;23;20508;-87
2022/10/11 03:49:13;;;;;;;19.27;7.93;;;9.30;99.90;;;;;;6198097;23;20555;-87
2022/10/11 03:52:29;;;;;;;;;;;;;;;;;;;;;
2022/10/11 03:55:24;;;;;;;;;;;;;;;;;;;;;
2022/10/11 03:58:41;;;;;;;;;;;;;;;;;;;;;
2022/10/11 04:01:38;;;;;;;22.00;7.80;;;9.20;99.90;;;;;;6213384;23;20225;-86
2022/10/11 04:04:36;;;;;;;21.13;8.00;;;9.20;99.90;;;;;;6200419;23;20212;-87
2022/10/11 04:07:27;;;;;;;;;;;;;;;;;;;;;
2022/10/11 04:10:16;;;;;;;13.88;7.20;;;9.20;99.90;;;;;;6215747;23;20213;-88
2022/10/11 04:13:09;;;;;;;19.13;8.07;;;9.10;99.90;;;;;;6189271;23;20192;-88
2022/10/11 04:15:40;;;;;;;14.32;6.80;;;9.10;99.90;;;;;;6215191;23;20133;-87
2022/10/11 04:18:22;;;;;;;;;;;;;;;;;;;;;
2022/10/11 04:24:16;;;;;;;14.05;7.82;;;9.10;99.90;;;;;;6194501;23;20178;-86
2022/10/11 04:26:48;;;;;;;12.20;7.55;;;9.10;99.90;;;;;;6193420;23;20181;-87
2022/10/11 04:29:14;;;;;;;14.52;7.78;;;9.00;99.90;;;;;;6192286;23;20168;-87
2022/10/11 04:31:39;;;;;;;19.90;9.70;;;9.00;99.90;;;;;;6215793;23;20150;-87
2022/10/11 04:34:05;;;;;;;10.00;7.30;;;9.00;99.90;;;;;;6213968;23;20176;-87
2022/10/11 04:36:32;;;;;;;11.20;6.60;;;9.00;99.90;;;;;;6187887;23;20165;-87
2022/10/11 04:39:00;;;;;;;8.45;6.10;;;9.00;99.90;;;;;;6214788;23;20627;-87
2022/10/11 04:41:49;;;;;;;9.02;6.28;;;9.00;99.90;;;;;;6214575;23;20188;-87
2022/10/11 04:44:54;;;;;;;8.70;5.38;;;8.90;99.90;;;;;;6188183;23;20177;-87
2022/10/11 04:51:19;;;;;;;;;;;;;;;;;;;;;
2022/10/11 04:56:55;;;;;;;15.80;5.32;;;8.70;99.90;;;;;;6193681;23;20508;-87
2022/10/11 04:59:30;;;;;;;;;;;;;;;;;;;;;
2022/10/11 05:02:03;;;;;;;10.38;5.93;;;8.60;99.90;;;;;;6214430;23;20659;-87
2022/10/11 05:04:48;;;;;;;7.95;5.75;;;8.50;99.90;;;;;;6214720;23;20219;-87
2022/10/11 05:07:56;;;;;;;13.55;5.32;;;8.50;99.90;;;;;;6214147;23;20515;-87
2022/10/11 05:24:57;;;;;;;;;;;;;;;;;;;;;
2022/10/11 05:28:57;;;;;;;;;;;;;;;;;;;;;
2022/10/11 05:45:52;;;;;;;8.30;6.50;;;8.50;50.50;;;;;;6075499;23;20184;-88
2022/10/11 06:20:24;;;;;;;;;;;;;;;;;;;;;
2022/10/11 06:23:11;;;;;;;9.20;5.55;;;8.80;22.90;;;;;;6206701;23;20560;-88
2022/10/11 06:29:34;;;;;;;14.23;5.53;;;9.30;99.90;;;;;;6214182;23;20689;-87
2022/10/11 06:32:32;;;;;;;;;;;;;;;;;;;;;
2022/10/11 06:53:24;;;;;;;;;;;;;;;;;;;;;
2022/10/11 06:57:14;;;;;;;;;;;;;;;;;;;;;
2022/10/11 07:19:37;;;;;;;;;;;;;;;;;;;;;
2022/10/11 07:22:28;;;;;;;10.13;4.60;;;30.60;99.90;;;;;;6213503;23;20441;-87
2022/10/11 07:25:53;;;;;;;;;;;;;;;;;;;;;
2022/10/11 07:32:15;;;;;;;;;;;;;;;;;;;;;
2022/10/11 13:40:49;;;;;;;8.70;3.50;;;25.70;15.70;;;;;;6241035;22;20443;-85
2022/10/11 13:43:30;;;;;;;12.40;3.20;;;26.00;16.60;;;;;;6243286;23;20419;-85
2022/10/11 13:46:40;;;;;;;5.83;2.60;;;25.90;15.70;;;;;;6244778;23;20349;-86
2022/10/11 13:49:40;;;;;;;14.40;4.60;;;25.80;15.80;;;;;;6242673;22;20408;-85
2022/10/11 13:52:48;;;;;;;13.33;3.73;;;25.80;15.80;;;;;;6217121;23;20386;-85
2022/10/11 13:55:35;;;;;;;8.70;3.00;;;25.40;14.70;;;;;;6242508;23;20382;-85
2022/10/11 13:58:21;;;;;;;10.17;4.30;;;25.30;14.60;;;;;;6246728;22;20360;-85
2022/10/11 14:01:21;;;;;;;7.70;2.80;;;25.40;15.30;;;;;;6246127;23;20355;-85
2022/10/11 14:03:54;;;;;;;5.40;2.80;;;25.10;14.20;;;;;;6206575;23;20767;-84
2022/10/11 14:06:20;;;;;;;13.83;3.50;;;24.90;14.10;;;;;;6244181;23;20808;-85
2022/10/11 14:09:04;;;;;;;12.93;4.40;;;24.90;13.20;;;;;;6244682;22;20400;-85
2022/10/11 14:11:41;;;;;;;11.87;4.47;;;24.90;13.60;;;;;;6244731;23;20140;-85
2022/10/11 14:14:30;;;;;;;12.70;4.40;;;24.70;13.90;;;;;;6244797;23;20379;-85
2022/10/11 14:17:11;;;;;;;13.30;4.07;;;24.50;13.70;;;;;;6244692;23;20428;-85
2022/10/11 14:19:48;;;;;;;;;;;;;;;;;;;;;
2022/10/11 14:22:17;;;;;;;11.83;4.57;;;24.30;13.40;;;;;;6243669;23;20750;-86
2022/10/11 14:24:46;;;;;;;13.10;4.80;;;24.30;14.60;;;;;;6244967;23;20421;-85
2022/10/11 14:27:27;;;;;;;9.87;4.43;;;24.40;14.60;;;;;;6244525;23;20410;-84
2022/10/11 14:30:01;;;;;;;9.40;4.00;;;24.30;14.50;;;;;;6217737;23;20468;-85
2022/10/11 14:32:32;;;;;;;12.07;4.97;;;24.10;13.90;;;;;;6244353;23;20391;-86
2022/10/11 14:34:58;;;;;;;12.80;5.03;;;23.90;13.90;;;;;;6244883;23;20366;-84
2022/10/11 14:37:26;;;;;;;11.13;4.93;;;23.80;13.90;;;;;;6245116;23;20391;-85
2022/10/11 14:39:52;;;;;;;14.27;4.40;;;23.90;14.40;;;;;;6220391;23;20485;-85
2022/10/11 14:42:20;;;;;;;9.87;3.67;;;23.80;14.40;;;;;;6185869;23;20398;-85
2022/10/11 14:44:53;;;;;;;9.50;4.13;;;23.70;14.30;;;;;;6186271;23;20614;-85
2022/10/11 14:47:21;;;;;;;8.53;4.30;;;23.70;14.80;;;;;;6213757;23;20901;-85
2022/10/11 14:49:48;;;;;;;8.80;4.20;;;23.70;15.60;;;;;;6214404;23;20402;-81
2022/10/11 14:52:14;;;;;;;8.07;3.60;;;23.40;15.00;;;;;;6217394;23;20719;-81
2022/10/11 14:54:40;;;;;;;11.13;4.67;;;23.40;15.50;;;;;;6220834;23;20379;-81
2022/10/11 14:57:05;;;;;;;9.83;4.50;;;23.50;16.20;;;;;;6190409;23;20606;-81
2022/10/11 14:59:35;;;;;;;10.23;3.83;;;23.50;16.70;;;;;;6215609;23;20644;-82
2022/10/11 15:02:02;;;;;;;10.23;3.33;;;23.70;17.40;;;;;;6189032;23;20158;-82
2022/10/11 15:04:27;;;;;;;8.37;3.73;;;23.80;17.20;;;;;;6189333;23;20875;-81
2022/10/11 15:06:55;;;;;;;9.73;4.33;;;23.70;16.90;;;;;;6188846;23;20422;-82
2022/10/11 15:09:21;;;;;;;13.83;4.80;;;23.50;16.70;;;;;;6216206;23;20609;-82
2022/10/11 15:11:48;;;;;;;9.67;4.27;;;23.40;16.50;;;;;;6214400;23;20406;-82
2022/10/11 15:14:14;;;;;;;11.37;4.70;;;23.10;15.80;;;;;;6212965;23;20380;-85
2022/10/11 15:16:40;;;;;;;9.53;5.07;;;22.90;16.50;;;;;;6214708;23;20475;-83
2022/10/11 15:19:09;;;;;;;12.43;6.23;;;22.60;16.20;;;;;;6186689;23;20847;-79
2022/10/11 15:21:35;;;;;;;11.40;5.60;;;22.10;15.00;;;;;;6213770;23;20152;-81
2022/10/11 15:24:00;;;;;;;10.50;5.30;;;21.70;14.80;;;;;;6187338;23;20386;-82
2022/10/11 15:26:27;;;;;;;7.90;4.70;;;21.40;14.10;;;;;;6187582;23;20178;-82
2022/10/11 15:28:55;;;;;;;13.70;5.20;;;21.10;13.60;;;;;;6213581;23;20229;-81
2022/10/11 15:31:21;;;;;;;15.73;5.50;;;20.90;13.60;;;;;;6188621;23;20747;-82
2022/10/11 15:33:46;;;;;;;14.50;6.23;;;20.80;14.30;;;;;;6188324;23;20389;-81
2022/10/11 15:36:17;;;;;;;14.00;6.00;;;20.60;14.90;;;;;;6214544;23;20228;-81
2022/10/11 15:38:43;;;;;;;10.53;6.50;;;20.50;15.50;;;;;;6223021;23;20748;-81
2022/10/11 15:41:14;;;;;;;12.17;5.80;;;20.30;16.50;;;;;;6218341;23;20385;-81
2022/10/11 15:43:40;;;;;;;12.43;5.97;;;20.10;15.60;;;;;;6246976;23;20376;-83
2022/10/11 15:46:06;;;;;;;11.93;6.80;;;19.90;16.00;;;;;;6217321;23;20392;-81
2022/10/11 15:48:31;;;;;;;14.07;6.00;;;19.80;16.80;;;;;;6244132;22;20937;-81
2022/10/11 15:51:03;;;;;;;17.27;6.77;;;19.70;17.40;;;;;;6245180;23;20239;-81
2022/10/11 15:53:30;;;;;;;12.07;6.70;;;19.60;17.90;;;;;;6244973;23;20151;-82
2022/10/11 15:56:05;;;;;;;11.47;6.23;;;19.60;18.40;;;;;;6243881;23;20374;-81
2022/10/11 15:58:33;;;;;;;8.80;5.73;;;19.40;18.70;;;;;;6243324;22;20398;-83
2022/10/11 16:01:04;;;;;;;10.20;6.30;;;19.20;19.00;;;;;;6218200;23;20382;-81
2022/10/11 16:03:31;;;;;;;12.80;6.57;;;19.10;19.00;;;;;;6246394;23;20729;-81
2022/10/11 16:06:00;;;;;;;19.43;7.20;;;18.90;19.30;;;;;;6245724;23;20370;-85
2022/10/11 16:08:26;;;;;;;11.30;6.30;;;18.80;20.00;;;;;;6245459;22;20391;-85
2022/10/11 16:11:19;;;;;;;12.23;6.97;;;18.70;20.30;;;;;;6215491;23;20702;-85
2022/10/11 16:13:56;;;;;;;11.60;6.70;;;18.60;20.50;;;;;;6243508;23;20273;-84
2022/10/11 16:16:25;;;;;;;18.77;6.50;;;18.60;21.90;;;;;;6243570;23;20365;-84
2022/10/11 16:19:10;;;;;;;;;;;;;;;;;;;;;
2022/10/11 16:22:25;;;;;;;14.43;6.33;;;18.50;23.40;;;;;;6245910;23;20441;-85
2022/10/11 16:25:50;;;;;;;;;;;;;;;;;;;;;
2022/10/11 16:28:50;;;;;;;;;;;;;;;;;;;;;
2022/10/11 16:31:19;;;;;;;13.37;6.47;;;18.30;36.30;;;;;;6245445;23;20432;-85
2022/10/11 16:33:56;;;;;;;8.70;6.13;;;18.10;25.20;;;;;;6243512;23;20406;-84
2022/10/11 16:36:34;;;;;;;17.70;6.60;;;18.00;25.70;;;;;;6246203;23;20360;-85
2022/10/11 16:39:25;;;;;;;11.47;5.90;;;17.90;25.90;;;;;;6219039;23;20421;-85
2022/10/11 16:41:52;;;;;;;14.30;7.37;;;17.80;26.60;;;;;;6218799;23;20881;-84
2022/10/11 16:44:27;;;;;;;14.00;7.03;;;17.70;27.00;;;;;;6245339;23;20370;-84
2022/10/11 16:47:18;;;;;;;14.40;7.73;;;17.60;27.60;;;;;;6246025;23;20848;-84
2022/10/11 16:50:09;;;;;;;17.67;7.87;;;17.60;28.00;;;;;;6244703;22;20392;-84
2022/10/11 16:53:24;;;;;;;;;;;;;;;;;;;;;
2022/10/11 16:56:23;;;;;;;;;;;;;;;;;;;;;
2022/10/11 17:02:11;;;;;;;;;;;;;;;;;;;;;
2022/10/11 17:05:09;;;;;;;;;;;;;;;;;;;;;
2022/10/11 17:07:35;;;;;;;14.80;8.83;;;16.80;31.40;;;;;;6247057;23;20455;-83
2022/10/11 17:10:03;;;;;;;22.30;9.77;;;16.70;32.20;;;;;;6216412;23;20442;-85
2022/10/11 17:12:31;;;;;;;19.43;9.40;;;16.60;31.90;;;;;;6244639;23;20164;-85
2022/10/11 17:14:58;;;;;;;18.80;8.20;;;16.60;32.90;;;;;;6218183;23;20406;-85
2022/10/11 17:17:26;;;;;;;15.10;7.40;;;16.50;34.50;;;;;;6244532;23;20472;-85
2022/10/11 17:19:54;;;;;;;23.53;8.67;;;16.40;34.60;;;;;;6243829;22;20434;-86
2022/10/11 17:22:20;;;;;;;13.53;8.30;;;16.30;36.70;;;;;;6244909;23;20473;-86
2022/10/11 17:24:45;;;;;;;15.00;8.80;;;16.20;36.80;;;;;;6216952;23;20390;-85
2022/10/11 17:27:15;;;;;;;18.27;9.00;;;16.20;37.80;;;;;;6245214;23;20152;-85
2022/10/11 17:29:41;;;;;;;15.70;7.90;;;16.10;38.70;;;;;;6243456;22;20175;-85
2022/10/11 17:32:24;;;;;;;13.20;7.90;;;16.00;39.40;;;;;;6245574;23;20379;-85
2022/10/11 17:35:00;;;;;;;17.60;8.73;;;15.90;40.50;;;;;;6246112;23;20194;-85
2022/10/11 17:37:34;;;;;;;14.23;8.20;;;15.80;41.50;;;;;;6218340;23;20414;-86
2022/10/11 17:39:59;;;;;;;13.53;7.90;;;15.80;43.60;;;;;;6216892;23;20419;-86
2022/10/11 17:42:32;;;;;;;20.23;10.70;;;15.70;44.40;;;;;;6245173;23;20418;-84
2022/10/11 17:45:00;;;;;;;15.03;8.70;;;15.60;45.20;;;;;;6216685;23;20142;-85
2022/10/11 17:47:26;;;;;;;14.83;8.97;;;15.60;47.10;;;;;;6244480;23;20378;-87
2022/10/11 17:49:54;;;;;;;25.43;9.50;;;15.50;49.10;;;;;;6244039;22;20433;-86
2022/10/11 17:52:22;;;;;;;19.60;9.40;;;15.50;50.60;;;;;;6217832;23;20160;-85
2022/10/11 17:55:23;;;;;;;13.60;8.20;;;15.40;52.60;;;;;;6244083;23;20389;-87
2022/10/11 17:58:02;;;;;;;;;;;;;;;;;;;;;
2022/10/11 18:01:20;;;;;;;18.27;8.90;;;15.30;56.50;;;;;;6245505;23;20422;-86
2022/10/11 18:04:12;;;;;;;;;;;;;;;;;;;;;
2022/10/11 18:07:23;;;;;;;16.97;9.23;;;15.20;63.50;;;;;;6246387;23;20572;-87
2022/10/11 18:10:21;;;;;;;;;;;;;;;;;;;;;
2022/10/11 18:13:11;;;;;;;15.10;9.63;;;15.10;73.10;;;;;;6244725;23;20440;-89
2022/10/11 18:16:02;;;;;;;16.33;10.10;;;14.90;78.40;;;;;;6244522;23;20354;-87
2022/10/11 18:23:05;;;;;;;;;;;;;;;;;;;;;
2022/10/11 18:29:31;;;;;;;16.57;11.50;;;14.50;94.00;;;;;;6220570;22;20837;-85
2022/10/11 18:44:43;;;;;;;14.67;9.70;;;14.20;99.90;;;;;;6184755;23;20387;-86
2022/10/11 18:47:49;;;;;;;;;;;;;;;;;;;;;
2022/10/11 18:50:44;;;;;;;19.37;13.73;;;14.10;99.90;;;;;;6246226;22;20948;-86
2022/10/11 19:14:56;;;;;;;20.67;10.90;;;13.40;99.90;;;;;;6116961;23;20949;-89
2022/10/11 19:25:01;;;;;;;;;;;;;;;;;;;;;
2022/10/11 19:35:10;;;;;;;;;;;;;;;;;;;;;
2022/10/11 19:38:15;;;;;;;;;;;;;;;;;;;;;
2022/10/11 19:44:37;;;;;;;19.73;10.43;;;12.90;99.90;;;;;;6200198;23;20905;-86
2022/10/11 19:50:48;;;;;;;21.97;11.37;;;12.80;99.90;;;;;;6198164;23;20491;-86
2022/10/11 19:53:16;;;;;;;25.83;11.10;;;12.70;99.90;;;;;;6207579;23;20381;-88
2022/10/11 19:59:56;;;;;;;19.57;11.37;;;12.70;99.90;;;;;;6198950;23;21082;-86
2022/10/11 20:03:20;;;;;;;;;;;;;;;;;;;;;
2022/10/11 20:06:27;;;;;;;14.50;10.70;;;12.60;99.90;;;;;;6207192;23;20380;-87
2022/10/11 20:09:52;;;;;;;;;;;;;;;;;;;;;
2022/10/11 20:12:26;;;;;;;21.27;11.63;;;12.50;99.90;;;;;;6214472;23;20432;-86
2022/10/11 20:18:15;;;;;;;;;;;;;;;;;;;;;
2022/10/11 20:21:15;;;;;;;19.13;11.53;;;12.30;99.90;;;;;;6215567;23;20448;-86
2022/10/11 20:24:32;;;;;;;;;;;;;;;;;;;;;
2022/10/11 20:26:52;;;;;;;22.73;12.97;;;12.20;99.90;;;;;;6210127;23;20388;-86
2022/10/11 20:29:53;;;;;;;;;;;;;;;;;;;;;
2022/10/11 20:32:34;;;;;;;17.77;11.33;;;12.10;99.90;;;;;;6214865;23;20431;-86
2022/10/11 20:35:46;;;;;;;;;;;;;;;;;;;;;
2022/10/11 20:38:47;;;;;;;23.90;13.83;;;12.00;99.90;;;;;;6215714;23;20496;-85
2022/10/11 20:41:49;;;;;;;;;;;;;;;;;;;;;
2022/10/11 20:57:11;;;;;;;18.43;11.90;;;11.70;99.90;;;;;;6220422;23;20391;-87
2022/10/11 21:03:26;;;;;;;21.07;11.87;;;11.60;99.90;;;;;;6227633;23;20379;-87
2022/10/11 21:13:02;;;;;;;;;;;;;;;;;;;;;
2022/10/11 21:18:58;;;;;;;;;;;;;;;;;;;;;
2022/10/11 21:36:33;;;;;;;;;;;;;;;;;;;;;
